Time;durP1;ratioP1;P1;durP2;ratioP2;P2;SDS_P1;SDS_P2;PMS_P1;PMS_P2;Temp;Humidity;BMP_temperature;BMP_pressure;BME280_temperature;BME280_humidity;BME280_pressure;Samples;Min_cycle;Max_cycle;Signal;HPM_P1;HPM_P2
2024/01/01 00:02:01;;;;;;;43.53;37.72;;;8.60;99.90;;;;;;5057931;29;20508;-72
2024/01/01 00:04:32;;;;;;;48.70;42.97;;;8.70;99.90;;;;;;5057741;29;20036;-74
2024/01/01 00:07:02;;;;;;;48.38;42.53;;;8.60;99.90;;;;;;5059572;29;20036;-74
2024/01/01 00:09:33;;;;;;;52.88;45.08;;;8.50;99.90;;;;;;5075373;29;20053;-73
2024/01/01 00:12:05;;;;;;;52.05;44.53;;;8.60;99.90;;;;;;5071217;29;20457;-74
2024/01/01 00:14:36;;;;;;;49.85;42.17;;;8.70;99.90;;;;;;5055501;29;20127;-74
2024/01/01 00:17:06;;;;;;;44.70;39.88;;;8.70;99.90;;;;;;5055966;29;20043;-74
2024/01/01 00:19:37;;;;;;;63.08;46.90;;;8.70;99.90;;;;;;5057725;29;20063;-76
2024/01/01 00:22:08;;;;;;;55.20;44.17;;;8.50;99.90;;;;;;5055001;29;20032;-72
2024/01/01 00:24:39;;;;;;;54.05;45.22;;;8.50;99.90;;;;;;5054821;29;20028;-74
2024/01/01 00:27:10;;;;;;;60.65;48.05;;;8.70;99.90;;;;;;5055659;29;20124;-73
2024/01/01 00:29:41;;;;;;;45.88;40.00;;;8.70;99.90;;;;;;5056071;29;20028;-74
2024/01/01 00:32:12;;;;;;;46.92;38.78;;;8.60;99.90;;;;;;5056760;29;20066;-75
2024/01/01 00:34:44;;;;;;;56.13;45.58;;;8.80;99.90;;;;;;5056005;29;20124;-73
2024/01/01 00:37:15;;;;;;;47.75;38.55;;;8.60;99.90;;;;;;5059134;29;20029;-74
2024/01/01 00:39:46;;;;;;;57.42;48.75;;;8.80;99.90;;;;;;5058547;29;20439;-73
2024/01/01 00:42:17;;;;;;;61.10;46.78;;;8.70;99.90;;;;;;5054865;29;20173;-73
2024/01/01 00:44:48;;;;;;;53.42;46.13;;;8.80;99.90;;;;;;5059156;29;20029;-73
2024/01/01 00:47:18;;;;;;;58.17;46.35;;;8.70;99.90;;;;;;5057590;29;20040;-74
2024/01/01 00:49:50;;;;;;;57.17;46.75;;;8.80;99.90;;;;;;5059230;29;20055;-73
2024/01/01 00:52:20;;;;;;;53.38;45.17;;;8.80;99.90;;;;;;5056785;29;20036;-75
2024/01/01 00:54:52;;;;;;;52.92;44.08;;;8.80;99.90;;;;;;5060715;29;20107;-74
2024/01/01 00:57:23;;;;;;;53.67;43.45;;;8.80;99.90;;;;;;5059264;29;20059;-74
2024/01/01 00:59:54;;;;;;;57.55;46.72;;;8.60;99.90;;;;;;5059749;29;20103;-73
2024/01/01 01:02:24;;;;;;;53.60;44.33;;;8.60;99.90;;;;;;5059538;29;20033;-75
2024/01/01 01:04:55;;;;;;;56.08;45.95;;;8.60;99.90;;;;;;5064158;29;20038;-74
2024/01/01 01:07:26;;;;;;;48.10;39.17;;;8.60;99.90;;;;;;5060297;29;20025;-73
2024/01/01 01:09:57;;;;;;;56.80;43.92;;;8.70;99.90;;;;;;5061511;29;20504;-73
2024/01/01 01:12:28;;;;;;;70.90;50.95;;;8.60;99.90;;;;;;5055566;29;20540;-74
2024/01/01 01:14:59;;;;;;;56.33;46.25;;;8.70;99.90;;;;;;5068152;29;20039;-74
2024/01/01 01:17:30;;;;;;;74.72;53.85;;;8.70;99.90;;;;;;5056834;29;20028;-74
2024/01/01 01:20:01;;;;;;;47.22;39.83;;;8.60;99.90;;;;;;5072525;29;20032;-73
2024/01/01 01:22:32;;;;;;;51.30;40.83;;;8.50;99.90;;;;;;5058075;29;20421;-74
2024/01/01 01:25:03;;;;;;;52.80;42.83;;;8.60;99.90;;;;;;5063376;29;20029;-74
2024/01/01 01:27:34;;;;;;;58.17;46.75;;;8.50;99.90;;;;;;5065630;29;20040;-74
2024/01/01 01:30:05;;;;;;;67.32;53.47;;;8.60;99.90;;;;;;5060525;29;20033;-74
2024/01/01 01:32:36;;;;;;;48.67;39.42;;;8.70;99.90;;;;;;5062641;29;20033;-75
2024/01/01 01:35:07;;;;;;;43.72;35.60;;;8.40;99.90;;;;;;5064912;29;20394;-73
2024/01/01 01:37:38;;;;;;;53.88;41.90;;;8.50;99.90;;;;;;5064166;29;20417;-75
2024/01/01 01:40:10;;;;;;;68.97;52.35;;;8.30;99.90;;;;;;5069009;29;20039;-74
2024/01/01 01:42:47;;;;;;;60.85;48.20;;;8.30;99.90;;;;;;5054806;29;20160;-73
2024/01/01 01:45:18;;;;;;;58.10;45.58;;;8.40;99.90;;;;;;5065495;29;20085;-74
2024/01/01 01:47:49;;;;;;;58.53;47.33;;;8.40;99.90;;;;;;5064793;29;20049;-74
2024/01/01 01:50:21;;;;;;;51.53;41.42;;;8.40;99.90;;;;;;5064171;29;20029;-74
2024/01/01 01:52:52;;;;;;;60.60;50.83;;;8.20;99.90;;;;;;5064505;29;20025;-73
2024/01/01 01:55:23;;;;;;;67.78;51.50;;;8.30;99.90;;;;;;5064437;29;20048;-75
2024/01/01 01:57:54;;;;;;;81.28;59.97;;;8.30;99.90;;;;;;5063442;29;20061;-74
2024/01/01 02:00:25;;;;;;;60.72;49.97;;;8.30;99.90;;;;;;5064600;29;20028;-73
2024/01/01 02:02:57;;;;;;;54.65;46.05;;;8.30;99.90;;;;;;5064378;29;20474;-74
2024/01/01 02:05:28;;;;;;;63.80;47.33;;;8.30;99.90;;;;;;5064329;29;20043;-75
2024/01/01 02:08:00;;;;;;;63.00;47.65;;;8.40;99.90;;;;;;5083229;29;20020;-75
2024/01/01 02:10:31;;;;;;;58.95;48.72;;;8.40;99.90;;;;;;5084628;29;20043;-75
2024/01/01 02:13:03;;;;;;;61.35;48.85;;;8.30;99.90;;;;;;5083432;29;20131;-74
2024/01/01 02:15:34;;;;;;;60.67;49.22;;;8.30;99.90;;;;;;5063778;29;20044;-75
2024/01/01 02:18:05;;;;;;;60.63;48.75;;;8.10;99.90;;;;;;5065331;29;20087;-73
2024/01/01 02:20:36;;;;;;;58.58;48.55;;;8.10;99.90;;;;;;5065289;29;20036;-75
2024/01/01 02:23:07;;;;;;;63.13;49.75;;;8.10;99.90;;;;;;5065141;29;20351;-75
2024/01/01 02:25:37;;;;;;;71.30;55.63;;;8.00;99.90;;;;;;5065240;29;20024;-75
2024/01/01 02:28:08;;;;;;;53.67;45.30;;;8.00;99.90;;;;;;5064097;29;20032;-74
2024/01/01 02:30:39;;;;;;;58.65;48.38;;;8.00;99.90;;;;;;5059146;29;20029;-75
2024/01/01 02:33:11;;;;;;;56.90;47.38;;;7.90;99.90;;;;;;5047940;29;20025;-74
2024/01/01 02:35:43;;;;;;;65.55;52.47;;;8.00;99.90;;;;;;5056975;29;20045;-75
2024/01/01 02:38:14;;;;;;;54.55;45.58;;;8.10;99.90;;;;;;5049242;29;20099;-73
2024/01/01 02:40:45;;;;;;;57.50;47.78;;;8.10;99.90;;;;;;5064979;29;20052;-74
2024/01/01 02:43:16;;;;;;;56.70;43.97;;;8.20;99.90;;;;;;5064858;29;20092;-75
2024/01/01 02:45:46;;;;;;;52.38;44.13;;;8.20;99.90;;;;;;5064464;29;20056;-74
2024/01/01 02:48:17;;;;;;;48.30;43.13;;;8.10;99.90;;;;;;5063617;29;20029;-74
2024/01/01 02:50:48;;;;;;;61.72;46.67;;;8.00;99.90;;;;;;5062917;29;20040;-73
2024/01/01 02:53:19;;;;;;;51.70;43.90;;;8.10;99.90;;;;;;5073597;29;20028;-73
2024/01/01 02:55:50;;;;;;;51.60;44.72;;;8.00;99.90;;;;;;5083744;29;20124;-74
2024/01/01 02:58:21;;;;;;;45.08;39.55;;;8.00;99.90;;;;;;5081004;29;20024;-75
2024/01/01 03:00:52;;;;;;;49.70;43.60;;;8.00;99.90;;;;;;5064494;29;20035;-72
2024/01/01 03:03:23;;;;;;;46.78;41.55;;;8.00;99.90;;;;;;5065043;29;20029;-73
2024/01/01 03:05:54;;;;;;;48.80;42.20;;;8.00;99.90;;;;;;5065114;29;20063;-75
2024/01/01 03:08:25;;;;;;;56.90;45.75;;;8.00;99.90;;;;;;5075649;29;20096;-72
2024/01/01 03:10:56;;;;;;;50.40;41.85;;;7.90;99.90;;;;;;5506037;23;20060;-74
2024/01/01 03:13:27;;;;;;;49.40;43.63;;;8.00;99.90;;;;;;5063764;29;20044;-75
2024/01/01 03:16:01;;;;;;;60.88;48.08;;;7.90;99.90;;;;;;5065006;29;20435;-73
2024/01/01 03:18:31;;;;;;;68.25;51.30;;;7.80;99.90;;;;;;5064952;29;20051;-73
2024/01/01 03:21:03;;;;;;;53.05;43.75;;;7.90;99.90;;;;;;5067899;29;20037;-74
2024/01/01 03:23:34;;;;;;;59.85;44.50;;;7.80;99.90;;;;;;5068316;29;20414;-76
2024/01/01 03:26:05;;;;;;;54.28;45.97;;;8.00;99.90;;;;;;5068330;29;20032;-75
2024/01/01 03:28:36;;;;;;;57.67;44.80;;;7.90;99.90;;;;;;5068149;29;20029;-75
2024/01/01 03:31:07;;;;;;;58.78;45.60;;;7.80;99.90;;;;;;5067898;29;20880;-72
2024/01/01 03:33:39;;;;;;;62.05;49.53;;;7.60;99.90;;;;;;5067411;29;20378;-73
2024/01/01 03:36:09;;;;;;;64.75;51.80;;;7.60;99.90;;;;;;5067571;29;20032;-73
2024/01/01 03:38:40;;;;;;;60.40;45.78;;;7.60;99.90;;;;;;5066165;29;20021;-74
2024/01/01 03:41:11;;;;;;;53.25;44.03;;;7.80;99.90;;;;;;5067081;29;20040;-74
2024/01/01 03:43:42;;;;;;;59.45;46.97;;;7.60;99.90;;;;;;5067266;29;20048;-73
2024/01/01 03:46:13;;;;;;;53.20;44.22;;;7.60;99.90;;;;;;5063646;29;20048;-72
2024/01/01 03:48:44;;;;;;;55.75;47.20;;;7.70;99.90;;;;;;5066674;29;20021;-73
2024/01/01 03:51:14;;;;;;;53.17;45.25;;;7.70;99.90;;;;;;5067870;29;20071;-75
2024/01/01 03:53:45;;;;;;;51.13;43.50;;;7.60;99.90;;;;;;5067701;29;20024;-75
2024/01/01 03:56:16;;;;;;;81.38;56.25;;;7.60;99.90;;;;;;5068013;29;20074;-75
2024/01/01 03:58:47;;;;;;;58.85;46.90;;;7.60;99.90;;;;;;5068053;29;20112;-74
2024/01/01 04:01:21;;;;;;;51.05;42.28;;;7.60;99.90;;;;;;5067919;29;20033;-75
2024/01/01 04:03:55;;;;;;;49.80;44.20;;;7.70;99.90;;;;;;5067563;29;20056;-73
2024/01/01 04:06:26;;;;;;;50.63;44.28;;;7.50;99.90;;;;;;5067717;29;20021;-75
2024/01/01 04:08:56;;;;;;;57.83;48.47;;;7.40;99.90;;;;;;5067593;29;20037;-75
2024/01/01 04:11:28;;;;;;;70.88;50.58;;;7.60;99.90;;;;;;5066832;29;20068;-75
2024/01/01 04:13:59;;;;;;;52.78;45.53;;;7.60;99.90;;;;;;5067051;29;20119;-74
2024/01/01 04:16:30;;;;;;;64.68;50.25;;;7.50;99.90;;;;;;5067399;29;20119;-73
2024/01/01 04:19:01;;;;;;;89.70;60.60;;;7.40;99.90;;;;;;5067337;29;20441;-74
2024/01/01 04:21:32;;;;;;;73.32;52.65;;;7.50;99.90;;;;;;5067355;29;20060;-74
2024/01/01 04:24:03;;;;;;;97.50;63.38;;;7.40;99.90;;;;;;5067141;29;20079;-72
2024/01/01 04:26:37;;;;;;;107.75;67.65;;;7.30;99.90;;;;;;5066835;29;20029;-74
2024/01/01 04:29:08;;;;;;;104.50;66.25;;;7.50;99.90;;;;;;5066458;29;20031;-73
2024/01/01 04:31:39;;;;;;;129.07;81.75;;;7.50;99.90;;;;;;5065913;29;20052;-72
2024/01/01 04:34:10;;;;;;;76.40;52.90;;;7.50;99.90;;;;;;5066056;29;20478;-75
2024/01/01 04:36:41;;;;;;;105.93;69.63;;;7.60;99.90;;;;;;5066372;29;20035;-74
2024/01/01 04:39:12;;;;;;;104.30;72.55;;;7.50;99.90;;;;;;5065992;29;20418;-73
2024/01/01 04:41:43;;;;;;;87.97;60.60;;;7.50;99.90;;;;;;5065113;29;20051;-74
2024/01/01 04:44:14;;;;;;;82.55;56.00;;;7.60;99.90;;;;;;5066504;29;20549;-73
2024/01/01 04:46:44;;;;;;;318.20;208.45;;;7.50;99.90;;;;;;5066930;29;20469;-72
2024/01/01 04:49:15;;;;;;;85.70;60.53;;;7.50;99.90;;;;;;5067082;29;20084;-75
2024/01/01 04:51:46;;;;;;;78.78;58.35;;;7.50;99.90;;;;;;5065831;29;20138;-75
2024/01/01 04:54:18;;;;;;;80.90;59.95;;;7.50;99.90;;;;;;5066655;29;20390;-74
2024/01/01 04:56:49;;;;;;;61.13;49.50;;;7.60;99.90;;;;;;5067044;29;20032;-73
2024/01/01 04:59:20;;;;;;;71.38;52.75;;;7.50;99.90;;;;;;5066720;29;20025;-73
2024/01/01 05:01:51;;;;;;;67.78;52.88;;;7.60;99.90;;;;;;5065188;29;20533;-74
2024/01/01 05:04:22;;;;;;;64.65;49.20;;;7.60;99.90;;;;;;5066581;29;20027;-75
2024/01/01 05:06:53;;;;;;;65.07;51.70;;;7.60;99.90;;;;;;5066293;29;20119;-74
2024/01/01 05:09:24;;;;;;;60.00;50.97;;;7.70;99.90;;;;;;5066384;29;20116;-73
2024/01/01 05:11:56;;;;;;;61.95;51.95;;;7.70;99.90;;;;;;5066502;29;20061;-75
2024/01/01 05:14:26;;;;;;;62.85;50.72;;;7.60;99.90;;;;;;5066470;29;20552;-73
2024/01/01 05:16:57;;;;;;;58.78;48.50;;;7.70;99.90;;;;;;5066640;29;20112;-74
2024/01/01 05:19:28;;;;;;;69.38;56.72;;;7.70;99.90;;;;;;5065313;29;20088;-72
2024/01/01 05:21:59;;;;;;;73.15;60.97;;;7.90;99.90;;;;;;5065777;29;20033;-72
2024/01/01 05:24:30;;;;;;;81.38;64.05;;;8.30;99.90;;;;;;5064740;29;20040;-75
2024/01/01 05:27:03;;;;;;;85.15;64.68;;;8.60;99.90;;;;;;5065129;29;20024;-73
2024/01/01 05:29:34;;;;;;;83.05;64.65;;;8.70;99.90;;;;;;5063771;29;20111;-73
2024/01/01 05:32:05;;;;;;;83.13;65.65;;;8.80;99.90;;;;;;5064798;29;20768;-74
2024/01/01 05:34:36;;;;;;;80.70;68.20;;;9.00;99.90;;;;;;5064874;29;20037;-75
2024/01/01 05:37:08;;;;;;;78.00;62.58;;;9.00;99.90;;;;;;5064943;29;20164;-76
2024/01/01 05:39:39;;;;;;;82.07;66.88;;;8.90;99.90;;;;;;5064765;29;20093;-73
2024/01/01 05:42:09;;;;;;;93.68;78.40;;;8.80;99.90;;;;;;5065208;29;20067;-75
2024/01/01 05:44:41;;;;;;;113.28;93.47;;;8.90;99.90;;;;;;5065569;29;20035;-72
2024/01/01 05:47:12;;;;;;;126.45;104.68;;;8.50;99.90;;;;;;5065597;29;20029;-75
2024/01/01 05:49:43;;;;;;;120.20;98.25;;;8.50;99.90;;;;;;5064280;29;20032;-74
2024/01/01 05:52:14;;;;;;;120.38;97.72;;;8.60;99.90;;;;;;5065693;29;20053;-72
2024/01/01 05:54:45;;;;;;;112.93;88.68;;;8.40;99.90;;;;;;5065744;29;20383;-75
2024/01/01 05:57:16;;;;;;;94.13;73.72;;;8.40;99.90;;;;;;5065613;29;20020;-75
2024/01/01 05:59:47;;;;;;;87.07;67.82;;;8.60;99.90;;;;;;5065582;29;20362;-74
2024/01/01 06:02:18;;;;;;;95.88;76.07;;;8.70;99.90;;;;;;5066034;29;20031;-75
2024/01/01 06:04:48;;;;;;;83.50;66.32;;;8.80;99.90;;;;;;5065658;29;20036;-75
2024/01/01 06:07:19;;;;;;;77.55;65.60;;;9.20;99.90;;;;;;5065319;29;20638;-73
2024/01/01 06:09:50;;;;;;;79.13;64.90;;;9.50;99.90;;;;;;5063921;29;20033;-74
2024/01/01 06:12:21;;;;;;;77.32;65.00;;;9.70;99.90;;;;;;5063814;29;20132;-75
2024/01/01 06:14:52;;;;;;;104.85;76.47;;;10.30;99.90;;;;;;5064762;29;20044;-73
2024/01/01 06:17:23;;;;;;;73.43;62.63;;;10.30;99.90;;;;;;5065024;29;20165;-74
2024/01/01 06:19:56;;;;;;;65.63;56.58;;;10.30;99.90;;;;;;5064645;29;20052;-74
2024/01/01 06:22:26;;;;;;;74.20;56.22;;;10.40;99.90;;;;;;5063221;29;20033;-74
2024/01/01 06:24:57;;;;;;;69.03;58.00;;;10.70;99.90;;;;;;5064210;29;20036;-72
2024/01/01 06:27:28;;;;;;;65.82;56.08;;;10.70;99.90;;;;;;5062902;29;20052;-74
2024/01/01 06:29:59;;;;;;;63.58;55.15;;;10.70;99.90;;;;;;5064199;29;20497;-73
2024/01/01 06:32:30;;;;;;;64.15;55.88;;;10.60;99.90;;;;;;5064228;29;20056;-74
2024/01/01 06:35:01;;;;;;;69.40;56.55;;;10.80;99.90;;;;;;5064023;29;20037;-75
2024/01/01 06:37:32;;;;;;;67.13;52.92;;;11.10;99.90;;;;;;5064858;29;20096;-75
2024/01/01 06:40:03;;;;;;;67.25;53.88;;;11.10;99.90;;;;;;5064688;29;20051;-74
2024/01/01 06:42:34;;;;;;;59.40;49.65;;;11.20;99.90;;;;;;5063775;29;20037;-73
2024/01/01 06:45:09;;;;;;;56.40;48.75;;;11.30;99.90;;;;;;5065011;29;20033;-74
2024/01/01 06:47:40;;;;;;;60.08;48.28;;;11.30;99.90;;;;;;5064621;29;20033;-73
2024/01/01 06:50:11;;;;;;;57.72;48.72;;;11.40;99.90;;;;;;5065191;29;20794;-75
2024/01/01 06:52:42;;;;;;;59.42;48.15;;;11.50;99.90;;;;;;5064910;29;20100;-75
2024/01/01 06:55:16;;;;;;;52.80;44.10;;;11.60;99.90;;;;;;5066763;29;20100;-73
2024/01/01 06:57:47;;;;;;;54.63;47.40;;;11.70;99.90;;;;;;5068628;29;20485;-74
2024/01/01 07:00:18;;;;;;;56.95;45.30;;;11.90;99.90;;;;;;5068193;29;20112;-75
2024/01/01 07:02:49;;;;;;;50.63;45.38;;;12.00;99.90;;;;;;5067029;29;20036;-73
2024/01/01 07:05:21;;;;;;;51.67;46.13;;;12.20;99.90;;;;;;5048660;29;20041;-73
2024/01/01 07:07:54;;;;;;;53.58;47.33;;;12.10;99.90;;;;;;5049573;29;20025;-74
2024/01/01 07:10:25;;;;;;;53.63;46.85;;;12.20;99.90;;;;;;5047608;29;20049;-74
2024/01/01 07:12:56;;;;;;;51.03;45.47;;;12.20;99.90;;;;;;5049026;29;20036;-74
2024/01/01 07:15:27;;;;;;;59.95;48.30;;;12.30;99.90;;;;;;5049026;29;20117;-75
2024/01/01 07:17:59;;;;;;;50.47;44.53;;;12.30;99.90;;;;;;5048220;29;20025;-73
2024/01/01 07:20:30;;;;;;;46.50;41.55;;;12.40;99.90;;;;;;5047342;29;20534;-71
2024/01/01 07:23:01;;;;;;;49.50;44.08;;;12.40;99.90;;;;;;5061952;29;20040;-72
2024/01/01 07:25:32;;;;;;;45.38;40.40;;;12.50;99.90;;;;;;5065898;29;20028;-75
2024/01/01 07:28:03;;;;;;;46.83;41.78;;;12.60;99.90;;;;;;5066182;29;20043;-73
2024/01/01 07:30:35;;;;;;;49.65;44.28;;;12.60;99.90;;;;;;5066346;29;20060;-73
2024/01/01 07:33:06;;;;;;;49.03;43.72;;;12.70;99.90;;;;;;5067081;29;20028;-75
2024/01/01 07:35:37;;;;;;;46.58;40.58;;;12.70;99.90;;;;;;5067321;29;20096;-75
2024/01/01 07:38:09;;;;;;;45.03;40.13;;;12.70;99.90;;;;;;5067273;29;20595;-73
2024/01/01 07:40:41;;;;;;;52.33;41.63;;;12.80;99.90;;;;;;5066989;29;20127;-75
2024/01/01 07:43:11;;;;;;;47.38;42.30;;;12.80;99.90;;;;;;5067497;29;20035;-74
2024/01/01 07:45:42;;;;;;;48.35;43.25;;;13.00;99.90;;;;;;5067227;29;20028;-74
2024/01/01 07:48:13;;;;;;;49.65;42.03;;;13.00;99.90;;;;;;5067074;29;20041;-74
2024/01/01 07:50:44;;;;;;;49.20;41.70;;;13.20;99.90;;;;;;5065690;29;20056;-72
2024/01/01 07:53:15;;;;;;;51.63;43.33;;;13.30;99.90;;;;;;5066792;29;20363;-75
2024/01/01 07:55:46;;;;;;;44.72;39.92;;;13.50;99.90;;;;;;5066919;29;20051;-75
2024/01/01 07:58:17;;;;;;;73.32;58.10;;;13.80;99.90;;;;;;5065844;29;20430;-74
2024/01/01 08:00:48;;;;;;;44.30;37.72;;;14.10;99.90;;;;;;5067030;29;20058;-75
2024/01/01 08:03:21;;;;;;;359.23;196.77;;;14.30;99.90;;;;;;5067004;29;20528;-73
2024/01/01 08:05:52;;;;;;;38.83;34.65;;;14.30;99.90;;;;;;5066234;29;20024;-73
2024/01/01 08:08:23;;;;;;;42.13;37.65;;;14.30;99.90;;;;;;5066630;29;20033;-73
2024/01/01 08:10:54;;;;;;;36.33;32.75;;;14.20;99.90;;;;;;5487931;23;20255;-72
2024/01/01 08:13:24;;;;;;;38.65;34.85;;;14.30;99.90;;;;;;5037479;29;20025;-72
2024/01/01 08:15:55;;;;;;;35.95;32.33;;;14.20;99.90;;;;;;5039806;29;20052;-74
2024/01/01 08:18:26;;;;;;;39.35;35.33;;;14.20;99.90;;;;;;5027284;29;20379;-74
2024/01/01 08:20:57;;;;;;;31.88;28.27;;;14.30;99.90;;;;;;5027146;29;20061;-73
2024/01/01 08:23:28;;;;;;;29.85;26.35;;;14.30;99.90;;;;;;5027246;29;20037;-73
2024/01/01 08:25:59;;;;;;;29.70;26.70;;;14.50;99.90;;;;;;5027068;29;20045;-74
2024/01/01 08:28:32;;;;;;;28.58;25.63;;;14.60;99.90;;;;;;5031630;29;20398;-74
2024/01/01 08:31:03;;;;;;;28.40;25.52;;;14.60;99.90;;;;;;5047342;29;20036;-74
2024/01/01 08:33:34;;;;;;;29.65;26.73;;;14.70;99.90;;;;;;5045703;29;20037;-72
2024/01/01 08:36:05;;;;;;;29.65;26.70;;;14.80;99.90;;;;;;5045596;29;20106;-74
2024/01/01 08:38:36;;;;;;;30.67;27.50;;;14.90;99.90;;;;;;5046785;29;20470;-72
2024/01/01 08:41:07;;;;;;;33.55;30.48;;;15.20;99.90;;;;;;5037353;29;20049;-75
2024/01/01 08:43:38;;;;;;;31.08;28.08;;;15.70;99.90;;;;;;5027416;29;20395;-73
2024/01/01 08:46:08;;;;;;;27.90;24.67;;;16.10;99.90;;;;;;5031481;29;20040;-75
2024/01/01 08:48:39;;;;;;;26.33;23.58;;;16.10;99.90;;;;;;5040154;29;20026;-75
2024/01/01 08:51:10;;;;;;;25.08;22.48;;;16.10;99.90;;;;;;5032962;29;20479;-74
2024/01/01 08:53:41;;;;;;;23.42;20.98;;;16.20;99.90;;;;;;5027257;29;20487;-73
2024/01/01 08:56:12;;;;;;;25.40;22.73;;;16.10;99.90;;;;;;5027077;29;20037;-74
2024/01/01 08:58:43;;;;;;;25.08;21.73;;;16.20;99.90;;;;;;5032051;29;20108;-73
2024/01/01 09:01:16;;;;;;;24.23;21.60;;;16.10;99.90;;;;;;5040360;29;20439;-75
2024/01/01 09:03:47;;;;;;;25.85;23.10;;;16.30;99.90;;;;;;5035474;29;20025;-76
2024/01/01 09:06:18;;;;;;;23.98;21.50;;;16.30;99.90;;;;;;5029964;29;20033;-72
2024/01/01 09:08:55;;;;;;;27.10;24.42;;;16.30;99.90;;;;;;5032755;29;20026;-76
2024/01/01 09:11:26;;;;;;;24.73;22.17;;;16.30;99.90;;;;;;5035541;29;20060;-76
2024/01/01 09:13:57;;;;;;;25.58;23.10;;;16.10;99.90;;;;;;5033603;29;20044;-76
2024/01/01 09:16:31;;;;;;;25.33;22.52;;;16.00;99.90;;;;;;5033953;29;20048;-75
2024/01/01 09:19:03;;;;;;;25.58;22.88;;;16.00;99.90;;;;;;5040921;29;20021;-76
2024/01/01 09:21:34;;;;;;;26.80;23.85;;;15.90;99.90;;;;;;5028856;29;20113;-74
2024/01/01 09:24:09;;;;;;;26.85;24.05;;;15.90;99.90;;;;;;5030853;29;20031;-75
2024/01/01 09:26:40;;;;;;;23.48;21.20;;;15.90;99.90;;;;;;5035482;29;20025;-76
2024/01/01 09:29:16;;;;;;;25.27;22.65;;;15.80;99.90;;;;;;5030038;29;20032;-77
2024/01/01 09:31:50;;;;;;;23.60;21.10;;;15.70;99.90;;;;;;5035462;29;20032;-76
2024/01/01 09:34:25;;;;;;;24.85;22.30;;;15.70;99.90;;;;;;5031451;29;20037;-73
2024/01/01 09:36:59;;;;;;;27.30;24.48;;;15.80;99.90;;;;;;5037825;29;20423;-74
2024/01/01 09:39:31;;;;;;;27.23;24.38;;;15.80;99.90;;;;;;5035155;29;20021;-76
2024/01/01 09:42:04;;;;;;;25.20;22.52;;;15.50;99.90;;;;;;5037495;29;20033;-72
2024/01/01 09:44:37;;;;;;;28.42;23.55;;;15.70;99.90;;;;;;5030669;29;20485;-76
2024/01/01 09:47:07;;;;;;;26.50;23.17;;;15.40;99.90;;;;;;5039023;29;20017;-78
2024/01/01 09:49:39;;;;;;;24.42;22.08;;;15.50;99.90;;;;;;5032455;29;20025;-74
2024/01/01 09:52:16;;;;;;;30.83;27.50;;;15.40;99.90;;;;;;5034844;29;20041;-77
2024/01/01 09:54:47;;;;;;;29.60;26.42;;;15.40;99.90;;;;;;5032336;29;20061;-74
2024/01/01 09:57:19;;;;;;;27.83;24.50;;;15.40;99.90;;;;;;5029680;29;20483;-72
2024/01/01 09:59:50;;;;;;;26.13;23.33;;;15.30;99.90;;;;;;5036915;29;20033;-74
2024/01/01 10:02:24;;;;;;;26.67;23.95;;;15.20;99.90;;;;;;5031287;29;20351;-75
2024/01/01 10:05:13;;;;;;;35.03;31.60;;;15.30;99.90;;;;;;5034016;29;20073;-77
2024/01/01 10:07:47;;;;;;;26.02;23.33;;;15.30;99.90;;;;;;5032447;29;20030;-75
2024/01/01 10:10:42;;;;;;;26.40;23.50;;;15.40;99.90;;;;;;5026842;29;20054;-75
2024/01/01 10:13:14;;;;;;;31.45;24.90;;;15.30;99.90;;;;;;5025021;29;20463;-77
2024/01/01 10:15:56;;;;;;;26.05;23.48;;;15.50;99.90;;;;;;5029431;29;20038;-77
2024/01/01 10:18:26;;;;;;;25.75;23.05;;;15.60;99.90;;;;;;5026779;29;20466;-76
2024/01/01 10:21:12;;;;;;;26.95;23.23;;;15.70;99.90;;;;;;5034529;29;20034;-76
2024/01/01 10:23:45;;;;;;;28.35;23.27;;;15.60;99.90;;;;;;5041767;29;20028;-72
2024/01/01 10:26:17;;;;;;;26.45;23.83;;;15.60;99.90;;;;;;5035509;29;20022;-72
2024/01/01 10:28:49;;;;;;;28.30;25.00;;;15.60;99.90;;;;;;5034424;29;20035;-73
2024/01/01 10:31:21;;;;;;;28.73;25.80;;;15.60;99.90;;;;;;5034838;29;20038;-75
2024/01/01 10:33:53;;;;;;;29.23;22.88;;;15.60;99.90;;;;;;5034546;29;20525;-75
2024/01/01 10:36:26;;;;;;;24.35;21.92;;;15.70;99.90;;;;;;5034612;29;20048;-72
2024/01/01 10:39:02;;;;;;;28.27;23.17;;;15.90;99.90;;;;;;5033358;29;20022;-72
2024/01/01 10:41:38;;;;;;;24.88;22.38;;;16.20;99.90;;;;;;5037063;29;20036;-73
2024/01/01 10:44:09;;;;;;;24.95;22.33;;;16.50;99.90;;;;;;5037563;29;20044;-75
2024/01/01 10:46:44;;;;;;;24.48;20.25;;;16.60;99.90;;;;;;5036528;29;20383;-75
2024/01/01 10:49:23;;;;;;;22.98;20.38;;;16.50;99.90;;;;;;5037788;29;20036;-74
2024/01/01 10:52:06;;;;;;;23.42;21.13;;;16.40;99.90;;;;;;5038402;29;20017;-76
2024/01/01 10:54:56;;;;;;;22.95;20.67;;;16.20;99.90;;;;;;5029406;29;20038;-75
2024/01/01 10:57:33;;;;;;;25.08;20.25;;;16.20;99.90;;;;;;5035995;29;20116;-72
2024/01/01 11:00:22;;;;;;;21.75;19.55;;;16.30;99.90;;;;;;5036649;29;20090;-76
2024/01/01 11:02:54;;;;;;;24.02;21.55;;;16.60;99.90;;;;;;5037014;29;20024;-74
2024/01/01 11:05:36;;;;;;;25.67;23.08;;;16.90;99.90;;;;;;5039709;29;20025;-76
2024/01/01 11:08:08;;;;;;;26.38;23.63;;;17.10;99.90;;;;;;5038868;29;20045;-76
2024/01/01 11:10:45;;;;;;;24.23;21.75;;;17.20;99.90;;;;;;5037348;29;20057;-79
2024/01/01 11:13:28;;;;;;;24.00;21.77;;;17.30;99.90;;;;;;5029284;29;20033;-74
2024/01/01 11:16:05;;;;;;;23.10;20.98;;;17.40;99.90;;;;;;5036199;29;20124;-72
2024/01/01 11:18:40;;;;;;;23.52;21.10;;;17.30;99.90;;;;;;5041383;29;20486;-72
2024/01/01 11:21:29;;;;;;;24.90;21.02;;;16.90;99.90;;;;;;5038289;29;20063;-73
2024/01/01 11:24:01;;;;;;;24.13;21.52;;;17.30;99.90;;;;;;5033471;29;20029;-74
2024/01/01 11:26:34;;;;;;;23.65;20.90;;;17.20;99.90;;;;;;5027752;29;20028;-73
2024/01/01 11:29:06;;;;;;;22.23;20.00;;;17.50;99.90;;;;;;5038093;29;20052;-73
2024/01/01 11:31:37;;;;;;;22.45;19.38;;;17.70;99.90;;;;;;5037083;29;20036;-72
2024/01/01 11:34:09;;;;;;;21.85;19.33;;;17.80;99.90;;;;;;5037750;29;20383;-73
2024/01/01 11:36:41;;;;;;;25.45;19.33;;;17.80;99.90;;;;;;5037212;29;20026;-72
2024/01/01 11:39:12;;;;;;;24.15;21.75;;;17.90;99.90;;;;;;5046452;29;20029;-73
2024/01/01 11:41:42;;;;;;;25.23;22.77;;;17.60;99.90;;;;;;5046074;29;20065;-74
2024/01/01 11:44:15;;;;;;;32.90;25.88;;;17.80;99.90;;;;;;5045904;29;20091;-75
2024/01/01 11:46:47;;;;;;;24.42;21.40;;;17.60;99.90;;;;;;5047665;29;20482;-75
2024/01/01 11:49:18;;;;;;;25.83;21.70;;;17.70;99.90;;;;;;5046063;29;20112;-74
2024/01/01 11:51:58;;;;;;;25.83;23.23;;;17.80;99.90;;;;;;5047364;29;20033;-74
2024/01/01 11:54:29;;;;;;;24.42;21.92;;;17.60;99.90;;;;;;5045660;29;20377;-75
2024/01/01 11:57:00;;;;;;;28.60;24.88;;;17.40;99.90;;;;;;5045372;29;20029;-72
2024/01/01 11:59:31;;;;;;;23.75;20.35;;;17.70;99.90;;;;;;5046315;29;20024;-75
2024/01/01 12:02:03;;;;;;;22.38;19.98;;;17.80;99.90;;;;;;5046227;29;20033;-72
2024/01/01 12:04:33;;;;;;;26.08;20.88;;;17.80;99.90;;;;;;5045437;29;20474;-73
2024/01/01 12:07:04;;;;;;;24.10;19.75;;;17.90;99.90;;;;;;5045300;29;20057;-76
2024/01/01 12:09:35;;;;;;;24.92;20.55;;;17.80;99.90;;;;;;5029540;29;20038;-74
2024/01/01 12:12:11;;;;;;;23.65;21.15;;;18.00;99.90;;;;;;5028051;29;20073;-75
2024/01/01 12:14:42;;;;;;;25.75;21.00;;;18.00;99.90;;;;;;5032516;29;20044;-74
2024/01/01 12:17:13;;;;;;;25.10;21.20;;;17.70;99.90;;;;;;5038733;29;20036;-72
2024/01/01 12:19:44;;;;;;;23.75;21.40;;;18.00;99.90;;;;;;5027548;29;20029;-74
2024/01/01 12:22:23;;;;;;;22.50;20.25;;;18.30;99.90;;;;;;5027777;29;20037;-73
2024/01/01 12:24:57;;;;;;;24.27;20.98;;;18.40;99.90;;;;;;5027693;29;20037;-74
2024/01/01 12:27:28;;;;;;;22.40;20.10;;;18.90;99.90;;;;;;5027788;29;20804;-72
2024/01/01 12:29:59;;;;;;;24.27;21.80;;;19.30;99.90;;;;;;5027405;29;20120;-74
2024/01/01 12:32:30;;;;;;;22.20;20.10;;;19.50;99.90;;;;;;5027331;29;20412;-73
2024/01/01 12:35:01;;;;;;;21.67;19.27;;;19.40;99.90;;;;;;5027522;29;20105;-75
2024/01/01 12:37:32;;;;;;;23.98;19.52;;;19.50;99.90;;;;;;5027378;29;20037;-72
2024/01/01 12:40:03;;;;;;;21.77;19.58;;;20.40;99.90;;;;;;5026698;29;20124;-73
2024/01/01 12:42:34;;;;;;;23.50;21.25;;;23.70;99.90;;;;;;5027149;29;20037;-72
2024/01/01 12:45:05;;;;;;;56.58;50.65;;;26.20;99.90;;;;;;5026552;29;20437;-75
2024/01/01 12:47:36;;;;;;;21.90;19.63;;;25.60;99.90;;;;;;5025529;29;20033;-73
2024/01/01 12:50:07;;;;;;;25.52;21.65;;;27.60;99.90;;;;;;5026615;29;20474;-73
2024/01/01 12:52:38;;;;;;;22.40;19.45;;;25.40;99.90;;;;;;5026239;29;20672;-73
2024/01/01 12:55:10;;;;;;;21.48;19.27;;;26.00;99.90;;;;;;5026202;29;20033;-72